createdAt,value
2022-07-25T00:00:14.288Z,49.43
2022-07-25T00:02:42.922Z,49.17
2022-07-25T00:05:12.492Z,49.08
2022-07-25T00:07:39.320Z,49.69
2022-07-25T00:10:06.581Z,49.73
2022-07-25T00:12:33.661Z,49.86
2022-07-25T00:15:01.412Z,49.74
2022-07-25T00:17:28.147Z,50.17
2022-07-25T00:19:54.814Z,50.14
2022-07-25T00:22:21.524Z,50.23
2022-07-25T00:24:48.217Z,49.95
2022-07-25T00:27:14.874Z,49.67
2022-07-25T00:29:41.696Z,50.13
2022-07-25T00:32:08.434Z,50.04
2022-07-25T00:34:35.078Z,50.38
2022-07-25T00:37:01.816Z,50.71
2022-07-25T00:39:28.460Z,50.29
2022-07-25T00:41:55.115Z,50.66
2022-07-25T00:44:29.534Z,49.86
2022-07-25T00:46:57.004Z,49.85
2022-07-25T00:49:24.547Z,50.81
2022-07-25T00:51:51.797Z,50.56
2022-07-25T00:54:18.948Z,50.81
2022-07-25T00:56:45.925Z,51.22
2022-07-25T00:59:12.577Z,51.19
2022-07-25T01:01:39.996Z,51.10
2022-07-25T01:04:07.349Z,50.84
2022-07-25T01:06:35.173Z,51.18
2022-07-25T01:09:02.146Z,51.36
2022-07-25T01:11:28.888Z,51.55
2022-07-25T01:13:55.638Z,51.25
2022-07-25T01:16:22.327Z,51.42
2022-07-25T01:18:49.042Z,51.53
2022-07-25T01:21:15.764Z,51.70
2022-07-25T01:23:42.697Z,51.59
2022-07-25T01:26:09.374Z,51.42
2022-07-25T01:28:36.136Z,51.04
2022-07-25T01:31:02.851Z,51.35
2022-07-25T01:33:29.711Z,50.17
2022-07-25T01:35:56.438Z,50.35
2022-07-25T01:38:24.146Z,50.70
2022-07-25T01:40:51.508Z,51.03
2022-07-25T01:43:18.316Z,51.16
2022-07-25T01:45:44.991Z,51.35
2022-07-25T01:48:11.767Z,51.59
2022-07-25T01:50:38.512Z,51.06
2022-07-25T01:53:05.302Z,51.09
2022-07-25T01:55:31.956Z,51.23
2022-07-25T01:57:59.377Z,51.29
2022-07-25T02:00:26.415Z,51.11
2022-07-25T02:03:11.925Z,51.62
2022-07-25T02:05:38.651Z,51.57
2022-07-25T02:08:05.523Z,51.04
2022-07-25T02:10:32.739Z,51.36
2022-07-25T02:13:00.704Z,51.28
2022-07-25T02:15:27.358Z,52.77
2022-07-25T02:17:54.383Z,53.07
2022-07-25T02:20:21.090Z,53.81
2022-07-25T02:22:47.739Z,54.36
2022-07-25T02:25:14.579Z,54.79
2022-07-25T02:27:42.639Z,55.46
2022-07-25T02:30:09.599Z,55.38
2022-07-25T02:32:36.303Z,55.19
2022-07-25T02:35:02.990Z,55.42
2022-07-25T02:37:29.980Z,55.45
2022-07-25T02:39:56.702Z,54.97
2022-07-25T02:42:25.346Z,54.80
2022-07-25T02:44:52.043Z,54.50
2022-07-25T02:47:18.743Z,54.15
2022-07-25T02:49:45.428Z,53.98
2022-07-25T02:52:12.147Z,53.98
2022-07-25T02:54:39.006Z,54.17
2022-07-25T02:57:05.706Z,54.64
2022-07-25T02:59:32.511Z,54.19
2022-07-25T03:01:59.322Z,55.23
2022-07-25T03:04:28.123Z,54.94
2022-07-25T03:06:54.819Z,54.82
2022-07-25T03:09:21.472Z,55.04
2022-07-25T03:11:48.173Z,55.12
2022-07-25T03:14:14.939Z,54.70
2022-07-25T03:16:41.882Z,54.66
2022-07-25T03:19:10.844Z,54.59
2022-07-25T03:21:38.136Z,54.49
2022-07-25T03:24:09.103Z,54.37
2022-07-25T03:26:40.645Z,54.08
2022-07-25T03:29:11.492Z,54.01
2022-07-25T03:31:38.211Z,54.05
2022-07-25T03:34:05.268Z,54.10
2022-07-25T03:36:32.583Z,54.22
2022-07-25T03:38:59.278Z,54.39
2022-07-25T03:41:27.902Z,54.28
2022-07-25T03:43:55.186Z,54.51
2022-07-25T03:46:21.890Z,54.61
2022-07-25T03:48:48.680Z,54.71
2022-07-25T03:51:15.492Z,54.67
2022-07-25T03:54:00.939Z,54.78
2022-07-25T03:56:41.545Z,54.83
2022-07-25T03:59:12.436Z,54.33
2022-07-25T04:01:39.680Z,54.49
2022-07-25T04:04:06.895Z,54.67
2022-07-25T04:06:33.977Z,54.25
2022-07-25T04:09:00.645Z,54.69
2022-07-25T04:11:29.301Z,54.87
2022-07-25T04:13:58.301Z,54.89
2022-07-25T04:16:25.018Z,54.79
2022-07-25T04:18:56.284Z,54.18
2022-07-25T04:21:24.231Z,52.10
2022-07-25T04:23:51.125Z,49.79
2022-07-25T04:26:18.448Z,47.35
2022-07-25T04:28:45.227Z,45.94
2022-07-25T04:31:12.069Z,45.48
2022-07-25T04:33:39.551Z,46.18
2022-07-25T04:36:06.772Z,46.66
2022-07-25T04:38:34.702Z,47.24
2022-07-25T04:41:01.407Z,47.64
2022-07-25T04:43:28.051Z,48.03
2022-07-25T04:46:20.816Z,48.84
2022-07-25T04:48:47.666Z,49.56
2022-07-25T04:51:15.232Z,49.16
2022-07-25T04:53:41.909Z,49.53
2022-07-25T04:56:08.666Z,49.92
2022-07-25T04:58:35.404Z,50.08
2022-07-25T05:01:02.215Z,50.62
2022-07-25T05:03:28.930Z,50.93
2022-07-25T05:05:55.568Z,51.11
2022-07-25T05:08:22.292Z,51.41
2022-07-25T05:10:48.948Z,51.72
2022-07-25T05:13:16.171Z,51.61
2022-07-25T05:15:43.091Z,52.19
2022-07-25T05:18:09.792Z,51.97
2022-07-25T05:20:36.517Z,52.02
2022-07-25T05:23:03.159Z,52.34
2022-07-25T05:25:29.853Z,51.83
2022-07-25T05:27:58.523Z,51.34
2022-07-25T05:30:25.331Z,51.58
2022-07-25T05:32:52.402Z,51.12
2022-07-25T05:35:19.088Z,51.23
2022-07-25T05:37:45.746Z,51.35
2022-07-25T05:40:13.081Z,51.60
2022-07-25T05:42:39.799Z,51.51
2022-07-25T05:45:07.102Z,51.77
2022-07-25T05:47:33.791Z,51.80
2022-07-25T05:50:01.489Z,52.05
2022-07-25T05:52:28.269Z,52.05
2022-07-25T05:54:54.985Z,51.87
2022-07-25T05:57:21.674Z,52.00
2022-07-25T05:59:48.658Z,52.14
2022-07-25T06:02:15.514Z,51.72
2022-07-25T06:04:42.225Z,51.74
2022-07-25T06:07:10.959Z,52.08
2022-07-25T06:09:43.504Z,51.31
2022-07-25T06:12:10.158Z,51.37
2022-07-25T06:14:38.406Z,51.03
2022-07-25T06:17:05.081Z,51.03
2022-07-25T06:19:36.167Z,51.02
2022-07-25T06:22:02.873Z,50.60
2022-07-25T06:24:29.503Z,50.88
2022-07-25T06:26:56.211Z,51.06
2022-07-25T06:29:22.900Z,51.24
2022-07-25T06:31:49.759Z,51.23
2022-07-25T06:34:16.491Z,51.33
2022-07-25T06:37:09.581Z,51.76
2022-07-25T06:39:36.266Z,51.34
2022-07-25T06:42:04.388Z,51.44
2022-07-25T06:44:34.758Z,51.56
2022-07-25T06:47:02.315Z,51.35
2022-07-25T06:49:29.147Z,51.15
2022-07-25T06:51:55.820Z,50.93
2022-07-25T06:54:22.519Z,50.24
2022-07-25T07:01:20.314Z,50.68
2022-07-25T07:03:47.113Z,50.51
2022-07-25T07:06:13.845Z,50.07
2022-07-25T07:08:40.558Z,49.70
2022-07-25T07:12:02.951Z,50.29
2022-07-25T07:14:29.710Z,50.50
2022-07-25T07:16:56.411Z,50.29
2022-07-25T07:19:23.096Z,50.96
2022-07-25T07:21:51.368Z,50.07
2022-07-25T07:24:23.825Z,50.60
2022-07-25T07:26:52.025Z,50.66
2022-07-25T07:29:19.057Z,50.16
2022-07-25T07:31:45.804Z,50.21
2022-07-25T07:34:14.449Z,49.79
2022-07-25T07:36:43.025Z,49.62
2022-07-25T07:39:09.882Z,49.96
2022-07-25T07:41:36.669Z,50.05
2022-07-25T07:44:03.316Z,49.86
2022-07-25T07:46:30.094Z,49.75
2022-07-25T07:49:01.369Z,49.46
2022-07-25T08:00:39.195Z,49.92
2022-07-25T08:03:08.553Z,50.21
2022-07-25T08:05:39.868Z,49.69
2022-07-25T08:08:08.832Z,50.15
2022-07-25T08:10:37.722Z,50.02
2022-07-25T08:13:19.036Z,49.93
2022-07-25T08:15:47.679Z,50.18
2022-07-25T08:18:16.911Z,50.04
2022-07-25T08:20:44.904Z,50.02
2022-07-25T08:23:11.683Z,50.10
2022-07-25T08:25:38.578Z,49.95
2022-07-25T08:28:06.390Z,49.77
2022-07-25T08:30:34.207Z,49.81
2022-07-25T08:33:05.414Z,50.12
2022-07-25T08:35:33.751Z,49.46
2022-07-25T08:38:00.951Z,49.78
2022-07-25T08:40:29.755Z,49.75
2022-07-25T08:42:56.934Z,49.54
2022-07-25T08:45:24.318Z,49.27
2022-07-25T08:47:52.315Z,48.80
2022-07-25T08:50:21.426Z,49.00
2022-07-25T08:52:49.200Z,49.43
2022-07-25T08:55:20.088Z,49.41
2022-07-25T08:57:48.377Z,49.08
2022-07-25T09:00:35.324Z,48.53
2022-07-25T09:03:03.682Z,48.27
2022-07-25T09:05:32.914Z,48.35
2022-07-25T09:08:09.987Z,48.10
2022-07-25T09:10:37.354Z,47.92
2022-07-25T09:13:07.916Z,47.31
2022-07-25T09:15:37.473Z,47.59
2022-07-25T09:18:10.637Z,47.57
2022-07-25T09:20:40.427Z,47.07
2022-07-25T09:23:07.631Z,47.62
2022-07-25T09:25:34.411Z,46.18
2022-07-25T09:28:16.435Z,46.78
2022-07-25T09:30:58.316Z,46.58
2022-07-25T09:33:26.314Z,46.98
2022-07-25T09:35:54.839Z,46.48
2022-07-25T09:38:22.431Z,46.48
2022-07-25T09:40:59.821Z,46.38
2022-07-25T09:43:55.724Z,45.81
2022-07-25T09:46:32.241Z,45.84
2022-07-25T09:49:00.542Z,45.77
2022-07-25T09:51:30.227Z,45.42
2022-07-25T09:53:56.988Z,45.10
2022-07-25T09:56:23.717Z,45.02
2022-07-25T09:59:45.065Z,44.94
2022-07-25T10:02:23.678Z,44.44
2022-07-25T10:05:08.811Z,44.50
2022-07-25T10:07:39.422Z,44.77
2022-07-25T10:10:06.902Z,44.09
2022-07-25T10:12:33.622Z,44.59
2022-07-25T10:16:16.507Z,44.22
2022-07-25T10:18:57.280Z,42.28
2022-07-25T10:21:27.960Z,42.88
2022-07-25T10:24:04.393Z,41.74
2022-07-25T10:26:31.965Z,42.12
2022-07-25T10:28:58.899Z,42.23
2022-07-25T10:31:34.112Z,42.75
2022-07-25T10:34:04.273Z,42.55
2022-07-25T10:36:51.670Z,43.32
2022-07-25T10:39:19.502Z,42.35
2022-07-25T10:41:55.710Z,43.26
2022-07-25T10:44:22.451Z,43.20
2022-07-25T10:46:50.288Z,43.01
2022-07-25T10:49:19.605Z,42.59
2022-07-25T10:52:17.381Z,42.71
2022-07-25T10:54:54.703Z,41.75
2022-07-25T10:57:21.926Z,42.10
2022-07-25T11:00:42.910Z,42.03
2022-07-25T11:03:11.495Z,41.44
2022-07-25T11:05:46.502Z,41.62
2022-07-25T11:08:21.703Z,41.28
2022-07-25T11:10:54.835Z,41.52
2022-07-25T11:13:21.590Z,42.12
2022-07-25T11:15:48.541Z,41.91
2022-07-25T11:18:15.309Z,41.55
2022-07-25T11:20:42.093Z,41.04
2022-07-25T11:23:08.770Z,40.48
2022-07-25T11:25:42.193Z,40.30
2022-07-25T11:28:08.863Z,40.46
2022-07-25T11:30:35.513Z,40.39
2022-07-25T11:33:02.206Z,40.24
2022-07-25T11:35:31.073Z,40.06
2022-07-25T11:38:01.424Z,38.96
2022-07-25T11:40:28.461Z,39.29
2022-07-25T11:42:57.347Z,38.96
2022-07-25T11:45:26.575Z,39.18
2022-07-25T11:48:07.950Z,39.03
2022-07-25T11:50:36.633Z,37.47
2022-07-25T11:53:08.502Z,37.80
2022-07-25T11:55:38.089Z,37.32
2022-07-25T11:58:05.272Z,37.41
2022-07-25T12:00:35.310Z,37.13
2022-07-25T12:03:19.854Z,38.00
2022-07-25T12:05:47.062Z,37.72
2022-07-25T12:08:15.571Z,37.63
2022-07-25T12:10:43.842Z,36.71
2022-07-25T12:13:25.074Z,36.74
2022-07-25T12:15:51.746Z,37.31
2022-07-25T12:18:18.438Z,36.86
2022-07-25T12:20:45.152Z,36.84
2022-07-25T12:23:12.815Z,37.19
2022-07-25T12:25:41.752Z,36.97
2022-07-25T12:28:34.804Z,37.18
2022-07-25T12:31:01.629Z,37.05
2022-07-25T12:33:28.342Z,37.53
2022-07-25T12:36:02.095Z,37.00
2022-07-25T12:39:26.931Z,37.25
2022-07-25T12:46:27.058Z,37.09
2022-07-25T12:48:54.973Z,36.78
2022-07-25T12:51:23.689Z,36.76
2022-07-25T12:53:55.192Z,37.55
2022-07-25T12:56:23.973Z,37.23
2022-07-25T12:58:51.788Z,37.15
2022-07-25T13:01:23.576Z,36.96
2022-07-25T13:03:51.339Z,37.28
2022-07-25T13:06:20.768Z,37.51
2022-07-25T13:08:47.553Z,37.37
2022-07-25T13:11:14.302Z,37.83
2022-07-25T13:13:41.075Z,38.06
2022-07-25T13:16:07.916Z,37.87
2022-07-25T13:18:34.772Z,38.02
2022-07-25T13:21:03.432Z,37.41
2022-07-25T13:23:30.096Z,37.63
2022-07-25T13:25:56.796Z,37.84
2022-07-25T13:28:23.522Z,37.89
2022-07-25T13:31:20.155Z,38.19
2022-07-25T13:33:47.865Z,38.06
2022-07-25T13:36:16.034Z,38.14
2022-07-25T13:38:44.615Z,38.06
2022-07-25T13:41:11.995Z,38.05
2022-07-25T13:43:39.626Z,37.95
2022-07-25T13:46:06.491Z,37.28
2022-07-25T13:48:33.327Z,37.47
2022-07-25T13:51:00.172Z,37.48
2022-07-25T13:53:30.169Z,37.33
2022-07-25T13:55:58.347Z,37.51
2022-07-25T13:58:25.496Z,37.60
2022-07-25T14:00:52.828Z,37.92
2022-07-25T14:03:19.632Z,38.09
2022-07-25T14:05:46.555Z,37.75
2022-07-25T14:08:13.229Z,37.93
2022-07-25T14:10:39.884Z,37.43
2022-07-25T14:13:37.067Z,37.89
2022-07-25T14:16:03.866Z,38.03
2022-07-25T14:18:31.918Z,37.99
2022-07-25T14:20:59.503Z,37.85
2022-07-25T14:23:29.949Z,37.82
2022-07-25T14:25:59.219Z,37.57
2022-07-25T14:28:26.155Z,37.58
2022-07-25T14:30:52.895Z,37.70
2022-07-25T14:33:21.594Z,37.37
2022-07-25T14:35:48.310Z,37.57
2022-07-25T14:38:15.249Z,37.12
2022-07-25T14:40:42.634Z,37.79
2022-07-25T14:43:10.318Z,38.11
2022-07-25T14:45:37.084Z,38.01
2022-07-25T14:48:05.978Z,37.96
2022-07-25T14:50:33.701Z,38.02
2022-07-25T14:53:00.351Z,38.04
2022-07-25T14:55:27.084Z,38.16
2022-07-25T14:57:55.060Z,38.13
2022-07-25T15:00:24.934Z,38.23
2022-07-25T15:03:00.174Z,38.36
2022-07-25T15:05:26.838Z,38.61
2022-07-25T15:07:53.550Z,38.67
2022-07-25T15:10:20.380Z,39.20
2022-07-25T15:13:13.589Z,39.77
2022-07-25T15:15:38.963Z,40.23
2022-07-25T15:18:08.385Z,40.40
2022-07-25T15:20:38.976Z,40.14
2022-07-25T15:23:08.136Z,40.54
2022-07-25T15:26:00.635Z,41.67
2022-07-25T15:29:41.902Z,41.77
2022-07-25T15:32:17.919Z,39.98
2022-07-25T15:34:44.642Z,39.42
2022-07-25T15:37:11.744Z,39.40
2022-07-25T15:39:38.652Z,39.37
2022-07-25T15:42:05.405Z,39.09
2022-07-25T15:44:32.689Z,39.21
2022-07-25T15:46:59.568Z,38.54
2022-07-25T15:49:26.398Z,39.01
2022-07-25T15:51:53.217Z,39.58
2022-07-25T15:54:19.994Z,39.95
2022-07-25T15:56:46.677Z,40.35
2022-07-25T15:59:13.334Z,39.85
2022-07-25T16:01:40.076Z,40.23
2022-07-25T16:04:33.660Z,40.41
2022-07-25T16:07:00.338Z,40.47
2022-07-25T16:09:27.028Z,39.67
2022-07-25T16:16:27.563Z,39.48
2022-07-25T16:18:55.450Z,39.18
2022-07-25T16:21:22.105Z,39.12
2022-07-25T16:23:48.759Z,38.77
2022-07-25T16:26:15.596Z,38.60
2022-07-25T16:28:42.347Z,38.38
2022-07-25T16:31:09.212Z,37.97
2022-07-25T16:33:39.121Z,37.73
2022-07-25T16:36:06.140Z,37.98
2022-07-25T16:38:32.813Z,38.04
2022-07-25T16:40:59.515Z,38.01
2022-07-25T16:43:26.250Z,38.16
2022-07-25T16:45:53.972Z,38.55
2022-07-25T16:48:20.642Z,39.00
2022-07-25T16:50:47.893Z,38.41
2022-07-25T16:53:14.692Z,38.61
2022-07-25T16:55:41.374Z,38.44
2022-07-25T16:58:08.052Z,38.87
2022-07-25T17:00:35.911Z,38.64
2022-07-25T17:03:04.943Z,38.74
2022-07-25T17:05:31.703Z,39.41
2022-07-25T17:07:59.862Z,39.01
2022-07-25T17:10:29.213Z,38.84
2022-07-25T17:12:58.267Z,38.23
2022-07-25T17:15:27.049Z,38.35
2022-07-25T17:17:53.794Z,37.99
2022-07-25T17:20:20.526Z,37.97
2022-07-25T17:22:47.359Z,38.21
2022-07-25T17:25:14.284Z,37.98
2022-07-25T17:27:41.097Z,37.84
2022-07-25T17:30:08.254Z,37.76
2022-07-25T17:32:34.984Z,37.70
2022-07-25T17:35:01.647Z,37.41
2022-07-25T17:37:28.430Z,37.66
2022-07-25T17:39:55.146Z,37.74
2022-07-25T17:42:24.753Z,37.62
2022-07-25T17:44:52.750Z,37.19
2022-07-25T17:47:19.926Z,37.51
2022-07-25T17:49:46.820Z,37.27
2022-07-25T17:52:15.479Z,37.30
2022-07-25T17:54:42.462Z,37.46
2022-07-25T17:57:37.115Z,37.32
2022-07-25T18:01:22.882Z,37.19
2022-07-25T18:03:50.625Z,37.53
2022-07-25T18:06:17.421Z,38.13
2022-07-25T18:08:44.262Z,37.56
2022-07-25T18:11:11.004Z,37.64
2022-07-25T18:13:38.040Z,37.64
2022-07-25T18:16:05.110Z,37.71
2022-07-25T18:18:32.983Z,37.68
2022-07-25T18:21:49.424Z,37.89
2022-07-25T18:28:52.188Z,37.04
2022-07-25T18:31:49.098Z,38.39
2022-07-25T18:34:16.028Z,37.08
2022-07-25T18:41:32.987Z,36.76
2022-07-25T18:44:01.100Z,36.40
2022-07-25T18:46:30.120Z,36.20
2022-07-25T18:48:57.746Z,36.29
2022-07-25T18:51:24.491Z,37.08
2022-07-25T18:53:51.250Z,38.15
2022-07-25T18:56:18.018Z,37.90
2022-07-25T18:58:45.259Z,37.80
2022-07-25T19:01:12.155Z,37.33
2022-07-25T19:03:40.665Z,37.23
2022-07-25T19:06:08.807Z,37.70
2022-07-25T19:09:00.703Z,38.10
2022-07-25T19:11:27.339Z,37.45
2022-07-25T19:13:54.022Z,37.07
2022-07-25T19:16:21.039Z,36.83
2022-07-25T19:18:47.874Z,36.22
2022-07-25T19:21:15.194Z,35.89
2022-07-25T19:23:48.310Z,36.14
2022-07-25T19:26:17.453Z,36.18
2022-07-25T19:28:44.125Z,36.09
2022-07-25T19:31:11.019Z,36.49
2022-07-25T19:33:38.445Z,36.69
2022-07-25T19:36:05.568Z,37.54
2022-07-25T19:38:33.237Z,37.63
2022-07-25T19:41:01.782Z,37.58
2022-07-25T19:43:29.743Z,37.68
2022-07-25T19:45:56.706Z,38.18
2022-07-25T19:48:24.857Z,37.95
2022-07-25T19:50:52.378Z,37.56
2022-07-25T19:53:19.301Z,37.31
2022-07-25T19:55:46.080Z,37.23
2022-07-25T19:58:12.880Z,37.22
2022-07-25T20:00:39.730Z,37.08
2022-07-25T20:03:06.687Z,36.99
2022-07-25T20:05:33.526Z,37.24
2022-07-25T20:08:08.324Z,37.21
2022-07-25T20:10:35.276Z,37.26
2022-07-25T20:13:05.033Z,37.71
2022-07-25T20:15:31.918Z,37.55
2022-07-25T20:17:58.929Z,37.78
2022-07-25T20:20:26.428Z,37.61
2022-07-25T20:22:53.274Z,38.21
2022-07-25T20:25:21.462Z,37.92
2022-07-25T20:27:49.678Z,37.69
2022-07-25T20:30:18.160Z,37.25
2022-07-25T20:32:46.177Z,37.79
2022-07-25T20:35:15.026Z,37.93
2022-07-25T20:37:42.820Z,38.30
2022-07-25T20:40:10.362Z,38.08
2022-07-25T20:42:38.322Z,38.84
2022-07-25T20:45:07.147Z,38.44
2022-07-25T20:47:34.998Z,38.90
2022-07-25T20:50:04.320Z,39.09
2022-07-25T20:52:33.257Z,38.46
2022-07-25T20:55:00.341Z,38.45
2022-07-25T20:57:27.210Z,38.42
2022-07-25T20:59:54.046Z,38.27
2022-07-25T21:02:22.209Z,37.97
2022-07-25T21:04:49.071Z,38.46
2022-07-25T21:07:16.687Z,38.27
2022-07-25T21:09:45.568Z,36.94
2022-07-25T21:12:12.419Z,37.39
2022-07-25T21:14:39.188Z,36.95
2022-07-25T21:17:05.930Z,36.95
2022-07-25T21:19:32.668Z,37.65
2022-07-25T21:21:59.501Z,36.91
2022-07-25T21:24:26.154Z,37.46
2022-07-25T21:26:56.292Z,38.33
2022-07-25T21:29:23.110Z,38.60
2022-07-25T21:31:50.165Z,39.22
2022-07-25T21:34:17.061Z,39.18
2022-07-25T21:36:43.811Z,39.12
2022-07-25T21:39:10.957Z,38.80
2022-07-25T21:41:37.928Z,38.64
2022-07-25T21:44:05.553Z,38.63
2022-07-25T21:46:34.643Z,38.78
2022-07-25T21:49:22.953Z,39.45
2022-07-25T21:52:07.266Z,39.44
2022-07-25T21:54:34.319Z,39.62
2022-07-25T21:57:01.062Z,40.05
2022-07-25T21:59:27.892Z,40.01
2022-07-25T22:01:54.765Z,40.00
2022-07-25T22:04:21.768Z,40.34
2022-07-25T22:06:48.658Z,40.50
2022-07-25T22:09:15.527Z,40.71
2022-07-25T22:11:46.074Z,40.74
2022-07-25T22:14:13.330Z,40.41
2022-07-25T22:16:40.116Z,40.83
2022-07-25T22:19:07.193Z,41.04
2022-07-25T22:21:34.133Z,40.59
2022-07-25T22:24:00.992Z,41.06
2022-07-25T22:26:27.761Z,40.31
2022-07-25T22:28:54.522Z,40.53
2022-07-25T22:31:21.545Z,40.65
2022-07-25T22:33:49.337Z,40.71
2022-07-25T22:36:16.173Z,40.96
2022-07-25T22:38:43.310Z,40.93
2022-07-25T22:41:10.848Z,40.79
2022-07-25T22:43:56.759Z,40.45
2022-07-25T22:46:24.617Z,41.30
2022-07-25T22:48:51.600Z,41.42
2022-07-25T22:51:18.505Z,41.57
2022-07-25T22:53:45.159Z,41.84
2022-07-25T22:56:11.948Z,41.98
2022-07-25T22:58:38.616Z,41.64
2022-07-25T23:01:05.807Z,41.90
2022-07-25T23:03:33.494Z,41.81
2022-07-25T23:06:00.371Z,41.91
2022-07-25T23:08:27.199Z,42.43
2022-07-25T23:10:55.454Z,42.09
2022-07-25T23:13:22.151Z,41.96
2022-07-25T23:15:50.435Z,41.94
2022-07-25T23:18:19.528Z,41.82
2022-07-25T23:20:49.084Z,41.67
2022-07-25T23:23:21.643Z,41.28
2022-07-25T23:25:48.325Z,41.82
2022-07-25T23:28:14.984Z,41.67
2022-07-25T23:30:41.988Z,41.39
2022-07-25T23:33:08.760Z,41.84
2022-07-25T23:35:35.729Z,41.70
2022-07-25T23:38:03.120Z,41.66
2022-07-25T23:40:30.043Z,42.07
2022-07-25T23:42:56.854Z,41.79
2022-07-25T23:45:26.366Z,42.05
2022-07-25T23:47:54.778Z,41.88
2022-07-25T23:50:22.334Z,42.64
2022-07-25T23:52:49.022Z,42.58
2022-07-25T23:55:15.678Z,42.65
2022-07-25T23:57:43.027Z,42.64
